createdAt,value
2022-08-25T03:39:16.702Z,10.07
2022-08-25T03:42:19.837Z,9.90
2022-08-25T03:45:22.897Z,9.80
2022-08-25T03:48:25.722Z,7.62
2022-08-25T03:51:35.661Z,7.05
2022-08-25T03:54:38.629Z,7.20
2022-08-25T03:57:41.134Z,6.35
2022-08-25T04:00:44.887Z,6.10
2022-08-25T04:03:48.172Z,6.53
2022-08-25T04:09:56.812Z,6.07
2022-08-25T04:12:59.864Z,5.90
2022-08-25T04:16:04.581Z,6.55
2022-08-25T04:19:09.352Z,6.30
2022-08-25T04:22:13.233Z,6.07
2022-08-25T04:25:15.931Z,5.78
2022-08-25T04:28:19.026Z,7.15
2022-08-25T04:31:22.224Z,6.43
2022-08-25T04:34:29.359Z,6.28
2022-08-25T04:37:33.746Z,6.07
2022-08-25T04:40:36.576Z,6.25
2022-08-25T04:43:41.105Z,6.40
2022-08-25T04:46:44.113Z,5.57
2022-08-25T04:49:46.665Z,5.53
2022-08-25T04:55:51.956Z,5.55
2022-08-25T04:58:55.885Z,4.85
2022-08-25T05:02:06.484Z,5.15
2022-08-25T05:05:09.267Z,4.53
2022-08-25T05:08:11.756Z,4.78
2022-08-25T05:11:18.890Z,5.40
2022-08-25T05:14:25.731Z,4.85
2022-08-25T05:17:29.266Z,5.68
2022-08-25T05:20:31.951Z,5.50
2022-08-25T05:26:38.336Z,5.30
2022-08-25T05:29:41.898Z,4.97
2022-08-25T05:32:44.954Z,5.97
2022-08-25T05:35:47.772Z,4.25
2022-08-25T05:38:50.697Z,5.00
2022-08-25T05:41:53.535Z,4.80
2022-08-25T05:44:56.106Z,4.57
2022-08-25T05:47:59.008Z,4.50
2022-08-25T05:51:04.766Z,4.30
2022-08-25T05:54:07.701Z,4.57
2022-08-25T05:57:10.252Z,4.70
2022-08-25T06:00:13.559Z,4.75
2022-08-25T06:03:16.635Z,4.20
2022-08-25T06:09:22.902Z,4.15
2022-08-25T06:12:25.450Z,4.25
2022-08-25T06:18:30.577Z,4.40
2022-08-25T06:24:37.142Z,3.65
2022-08-25T06:27:40.400Z,3.83
2022-08-25T06:30:43.228Z,4.30
2022-08-25T06:33:46.580Z,3.47
2022-08-25T06:36:50.535Z,4.45
2022-08-25T06:39:53.481Z,4.28
2022-08-25T06:46:07.541Z,3.47
2022-08-25T06:49:12.783Z,3.53
2022-08-25T06:52:15.683Z,3.67
2022-08-25T06:55:18.649Z,3.55
2022-08-25T06:58:21.473Z,3.78
2022-08-25T07:01:27.011Z,3.72
2022-08-25T07:04:30.380Z,3.47
2022-08-25T07:07:42.876Z,4.07
2022-08-25T07:10:48.140Z,4.22
2022-08-25T07:13:51.247Z,2.87
2022-08-25T07:16:54.168Z,3.33
2022-08-25T07:19:57.389Z,3.75
2022-08-25T07:23:00.688Z,3.67
2022-08-25T07:26:36.315Z,3.15
2022-08-25T07:29:42.663Z,3.25
2022-08-25T07:32:45.594Z,3.22
2022-08-25T07:35:48.459Z,4.07
2022-08-25T07:38:52.933Z,3.58
2022-08-25T07:41:58.176Z,3.72
2022-08-25T07:45:00.763Z,3.60
2022-08-25T07:48:10.699Z,3.45
2022-08-25T07:51:17.534Z,3.45
2022-08-25T07:54:20.820Z,4.18
2022-08-25T07:57:26.325Z,3.92
2022-08-25T08:00:30.286Z,2.97
2022-08-25T08:03:50.063Z,3.75
2022-08-25T08:06:53.826Z,3.03
2022-08-25T08:10:32.930Z,3.70
2022-08-25T08:13:19.505Z,3.33
2022-08-25T08:16:25.926Z,3.70
2022-08-25T08:19:28.594Z,3.25
2022-08-25T08:22:31.663Z,3.60
2022-08-25T08:25:34.184Z,3.55
2022-08-25T08:28:37.276Z,2.67
2022-08-25T08:31:40.779Z,3.37
2022-08-25T08:34:51.512Z,3.10
2022-08-25T08:37:54.296Z,3.22
2022-08-25T08:41:40.080Z,2.95
2022-08-25T08:44:45.949Z,3.05
2022-08-25T08:48:13.664Z,3.33
2022-08-25T08:51:23.215Z,2.62
2022-08-25T08:54:31.076Z,3.25
2022-08-25T08:57:45.083Z,2.95
2022-08-25T09:00:56.039Z,2.90
2022-08-25T09:04:17.429Z,2.40
2022-08-25T09:07:30.375Z,3.10
2022-08-25T09:10:50.619Z,2.97
2022-08-25T09:14:14.067Z,2.80
2022-08-25T09:17:38.419Z,2.67
2022-08-25T09:20:58.241Z,2.75
2022-08-25T09:24:28.329Z,2.70
2022-08-25T09:27:49.540Z,2.78
2022-08-25T09:31:01.996Z,2.58
2022-08-25T09:37:09.987Z,3.00
2022-08-25T09:40:12.908Z,2.22
2022-08-25T09:43:40.347Z,2.78
2022-08-25T09:47:13.563Z,2.40
2022-08-25T09:50:20.090Z,3.10
2022-08-25T09:53:23.583Z,2.12
2022-08-25T09:56:31.998Z,2.22
2022-08-25T09:59:37.096Z,2.05
2022-08-25T10:02:40.982Z,1.95
2022-08-25T10:05:46.010Z,2.50
2022-08-25T10:08:48.503Z,2.35
2022-08-25T10:11:52.633Z,2.03
2022-08-25T10:15:00.370Z,2.22
2022-08-25T10:18:15.737Z,2.20
2022-08-25T10:21:20.068Z,1.98
2022-08-25T10:24:25.397Z,2.65
2022-08-25T10:27:58.502Z,2.12
2022-08-25T10:31:10.482Z,2.30
2022-08-25T10:34:36.997Z,2.47
2022-08-25T10:37:44.292Z,2.40
2022-08-25T10:41:00.374Z,2.20
2022-08-25T10:44:33.912Z,2.90
2022-08-25T10:47:49.694Z,2.20
2022-08-25T10:51:19.631Z,2.00
2022-08-25T10:54:55.831Z,2.58
2022-08-25T10:58:13.055Z,2.35
2022-08-25T11:01:53.421Z,2.40
2022-08-25T11:05:09.657Z,2.50
2022-08-25T11:08:28.986Z,2.80
2022-08-25T11:11:37.818Z,2.65
2022-08-25T11:14:49.204Z,2.35
2022-08-25T11:17:51.983Z,2.22
2022-08-25T11:21:09.799Z,2.30
2022-08-25T11:24:32.927Z,2.25
2022-08-25T11:27:58.195Z,2.30
2022-08-25T11:31:03.475Z,2.35
2022-08-25T11:34:15.401Z,2.35
2022-08-25T11:37:28.975Z,2.30
2022-08-25T11:40:34.522Z,2.58
2022-08-25T11:43:44.363Z,2.30
2022-08-25T11:47:05.622Z,2.35
2022-08-25T11:50:49.601Z,2.10
2022-08-25T11:54:21.563Z,2.83
2022-08-25T11:57:29.067Z,2.47
2022-08-25T12:00:41.104Z,2.30
2022-08-25T12:03:44.212Z,1.97
2022-08-25T12:07:05.691Z,2.45
2022-08-25T12:10:13.992Z,2.72
2022-08-25T12:13:51.548Z,2.50
2022-08-25T12:16:54.455Z,2.50
2022-08-25T12:19:59.538Z,2.37
2022-08-25T12:23:02.559Z,2.70
2022-08-25T12:26:19.165Z,2.25
2022-08-25T12:29:22.421Z,2.97
2022-08-25T12:32:34.116Z,2.15
2022-08-25T12:39:17.168Z,2.25
2022-08-25T12:42:37.975Z,2.33
2022-08-25T12:45:44.201Z,2.42
2022-08-25T12:49:23.824Z,2.50
2022-08-25T12:52:28.111Z,2.25
2022-08-25T12:55:33.317Z,2.45
2022-08-25T12:59:00.271Z,2.83
2022-08-25T13:02:29.798Z,2.53
2022-08-25T13:05:54.337Z,2.40
2022-08-25T13:09:28.528Z,2.28
2022-08-25T13:12:43.285Z,2.10
2022-08-25T13:15:58.453Z,2.30
2022-08-25T13:19:05.343Z,2.80
2022-08-25T13:22:16.365Z,2.75
2022-08-25T13:25:24.704Z,2.00
2022-08-25T13:28:40.822Z,2.40
2022-08-25T13:32:09.577Z,2.60
2022-08-25T13:35:32.697Z,2.58
2022-08-25T13:38:35.506Z,2.40
2022-08-25T13:41:45.488Z,2.40
2022-08-25T13:44:51.917Z,2.80
2022-08-25T13:47:57.099Z,2.20
2022-08-25T13:51:39.639Z,2.30
2022-08-25T13:54:50.469Z,2.62
2022-08-25T13:57:53.383Z,2.25
2022-08-25T14:01:23.648Z,2.72
2022-08-25T14:04:51.176Z,2.75
2022-08-25T14:08:09.244Z,2.40
2022-08-25T14:11:29.140Z,2.50
2022-08-25T14:14:37.655Z,2.60
2022-08-25T14:17:43.658Z,2.67
2022-08-25T14:20:54.340Z,2.95
2022-08-25T14:23:58.431Z,2.28
2022-08-25T14:27:03.275Z,2.35
2022-08-25T14:30:06.779Z,2.30
2022-08-25T14:33:10.226Z,2.08
2022-08-25T14:40:55.448Z,2.67
2022-08-25T14:44:05.099Z,2.67
2022-08-25T14:47:07.886Z,2.40
2022-08-25T14:50:12.764Z,2.35
2022-08-25T14:53:15.632Z,2.55
2022-08-25T14:56:18.455Z,2.30
2022-08-25T14:59:21.386Z,2.28
2022-08-25T15:02:29.649Z,2.53
2022-08-25T15:05:33.416Z,2.65
2022-08-25T15:08:54.832Z,1.95
2022-08-25T15:11:58.124Z,2.55
2022-08-25T15:15:04.378Z,2.47
2022-08-25T15:18:08.263Z,2.03
2022-08-25T15:21:12.786Z,2.37
2022-08-25T15:24:19.543Z,2.70
